Time;durP1;ratioP1;P1;durP2;ratioP2;P2;SDS_P1;SDS_P2;PMS_P1;PMS_P2;Temp;Humidity;BMP_temperature;BMP_pressure;BME280_temperature;BME280_humidity;BME280_pressure;Samples;Min_cycle;Max_cycle;Signal;HPM_P1;HPM_P2
2022/11/16 00:01:17;;;;;;;77.35;32.28;;;;;;;;;;5005515;28;20041;-68
2022/11/16 00:03:43;;;;;;;74.55;31.88;;;;;;;;;;5003963;28;20113;-67
2022/11/16 00:06:08;;;;;;;77.13;32.65;;;;;;;;;;5009626;28;20532;-68
2022/11/16 00:08:35;;;;;;;79.55;32.38;;;;;;;;;;5009784;28;20483;-68
2022/11/16 00:11:04;;;;;;;76.65;33.05;;;;;;;;;;5005569;28;20030;-68
2022/11/16 00:13:30;;;;;;;75.95;30.83;;;;;;;;;;5006855;28;20026;-67
2022/11/16 00:15:56;;;;;;;78.57;32.47;;;;;;;;;;5000503;28;20144;-67
2022/11/16 00:18:22;;;;;;;74.47;31.00;;;;;;;;;;5006628;28;20108;-68
2022/11/16 00:20:47;;;;;;;71.93;31.17;;;;;;;;;;4990853;28;20029;-68
2022/11/16 00:23:12;;;;;;;75.03;32.90;;;;;;;;;;5008099;28;20024;-68
2022/11/16 00:25:37;;;;;;;75.83;30.40;;;;;;;;;;5009251;28;20026;-67
2022/11/16 00:28:03;;;;;;;69.97;30.73;;;;;;;;;;5005077;28;20053;-68
2022/11/16 00:30:28;;;;;;;75.07;30.27;;;;;;;;;;4988635;28;20288;-66
2022/11/16 00:32:53;;;;;;;70.80;29.40;;;;;;;;;;5008532;28;20132;-68
2022/11/16 00:35:18;;;;;;;78.72;31.23;;;;;;;;;;5014504;28;20454;-68
2022/11/16 00:37:44;;;;;;;73.07;30.50;;;;;;;;;;4995293;28;20025;-68
2022/11/16 00:40:09;;;;;;;81.50;30.50;;;;;;;;;;5013162;28;20034;-67
2022/11/16 00:42:34;;;;;;;71.25;29.00;;;;;;;;;;5008372;28;20030;-68
2022/11/16 00:45:00;;;;;;;75.63;30.00;;;;;;;;;;5015286;28;20109;-68
2022/11/16 00:47:26;;;;;;;75.37;30.10;;;;;;;;;;5009033;28;20059;-68
2022/11/16 00:49:51;;;;;;;77.22;29.60;;;;;;;;;;5003236;28;20108;-68
2022/11/16 00:52:16;;;;;;;73.38;28.92;;;;;;;;;;5009439;28;20026;-66
2022/11/16 00:54:41;;;;;;;74.07;30.60;;;;;;;;;;5006215;28;20488;-68
2022/11/16 00:57:07;;;;;;;78.43;30.50;;;;;;;;;;5007123;28;20056;-67
2022/11/16 00:59:32;;;;;;;78.83;30.20;;;;;;;;;;5011345;28;20033;-67
2022/11/16 01:01:57;;;;;;;75.43;30.73;;;;;;;;;;5010478;28;20287;-67
2022/11/16 01:04:22;;;;;;;77.27;28.77;;;;;;;;;;5013477;28;20294;-67
2022/11/16 01:06:48;;;;;;;74.00;28.23;;;;;;;;;;5008197;28;20041;-68
2022/11/16 01:09:13;;;;;;;72.47;29.13;;;;;;;;;;5007359;28;20080;-67
2022/11/16 01:14:22;;;;;;;70.20;28.73;;;;;;;;;;5008541;28;20045;-67
2022/11/16 01:16:50;;;;;;;71.47;27.60;;;;;;;;;;5014865;28;20195;-67
2022/11/16 01:19:15;;;;;;;70.38;27.80;;;;;;;;;;5012221;28;20315;-68
2022/11/16 01:21:40;;;;;;;70.80;27.67;;;;;;;;;;5012887;28;20037;-68
2022/11/16 01:24:06;;;;;;;63.00;26.60;;;;;;;;;;5005044;28;20275;-68
2022/11/16 01:26:31;;;;;;;64.45;26.42;;;;;;;;;;5007060;28;20279;-67
2022/11/16 01:28:57;;;;;;;64.80;28.53;;;;;;;;;;5001776;28;20149;-66
2022/11/16 01:31:22;;;;;;;64.93;25.83;;;;;;;;;;5008745;28;20034;-66
2022/11/16 01:33:47;;;;;;;68.50;26.47;;;;;;;;;;5007333;28;20537;-66
2022/11/16 01:36:13;;;;;;;68.07;26.67;;;;;;;7.81;nan;100040.09;5007870;28;20109;-66
2022/11/16 01:38:40;;;;;;;69.95;28.25;;;;;;;;;;5010849;28;20389;-67
2022/11/16 01:41:05;;;;;;;68.00;26.27;;;;;;;;;;5009076;28;20688;-67
2022/11/16 01:43:47;;;;;;;64.87;25.27;;;;;;;;;;5010074;28;20053;-67
2022/11/16 01:46:12;;;;;;;62.47;25.60;;;;;;;;;;4998171;28;20279;-69
2022/11/16 01:48:38;;;;;;;64.83;26.17;;;;;;;;;;5010254;28;20033;-67
2022/11/16 01:51:03;;;;;;;63.67;26.63;;;;;;;;;;5009541;28;20034;-68
2022/11/16 01:53:28;;;;;;;63.30;25.33;;;;;;;;;;4992778;28;20519;-68
2022/11/16 01:55:54;;;;;;;63.90;25.93;;;;;;;;;;5012980;28;20036;-68
2022/11/16 01:58:21;;;;;;;63.78;25.85;;;;;;;;;;5013630;28;20341;-69
2022/11/16 02:00:47;;;;;;;66.95;28.17;;;;;;;;;;4989984;28;20030;-67
2022/11/16 02:03:15;;;;;;;65.20;25.70;;;;;;;;;;5010660;28;20068;-68
2022/11/16 02:05:47;;;;;;;64.85;26.42;;;;;;;;;;5004266;28;20061;-68
2022/11/16 02:11:05;;;;;;;65.05;25.83;;;;;;;;;;5006064;28;20037;-67
2022/11/16 02:13:44;;;;;;;63.28;26.48;;;;;;;;;;5011041;28;20022;-67
2022/11/16 02:16:27;;;;;;;67.50;26.92;;;;;;;;;;5011233;28;20044;-65
2022/11/16 02:18:55;;;;;;;69.22;26.17;;;;;;;;;;5005337;28;20385;-67
2022/11/16 02:21:27;;;;;;;63.90;25.58;;;;;;;;;;5009291;28;20083;-67
2022/11/16 02:24:11;;;;;;;56.55;24.40;;;;;;;;;;5009745;28;20026;-66
2022/11/16 02:26:55;;;;;;;59.40;24.80;;;;;;;;;;5007954;28;20384;-68
2022/11/16 02:29:26;;;;;;;59.03;23.98;;;;;;;;;;5005627;28;20018;-67
2022/11/16 02:32:01;;;;;;;62.90;24.38;;;;;;;;;;5009420;28;20152;-66
2022/11/16 02:34:29;;;;;;;64.85;27.95;;;;;;;;;;5012778;28;20087;-65
2022/11/16 02:36:55;;;;;;;60.60;25.17;;;;;;;;;;5018623;28;20033;-65
2022/11/16 02:39:23;;;;;;;63.95;25.48;;;;;;;;;;5021721;28;20029;-64
2022/11/16 02:41:49;;;;;;;57.63;24.60;;;;;;;;;;5018132;28;20064;-65
2022/11/16 02:44:17;;;;;;;53.42;22.80;;;;;;;;;;5019918;28;20030;-64
2022/11/16 02:46:44;;;;;;;53.80;23.65;;;;;;;;;;5017329;28;20096;-65
2022/11/16 02:49:12;;;;;;;56.70;23.85;;;;;;;;;;5011166;28;20076;-65
2022/11/16 02:51:38;;;;;;;53.17;23.52;;;;;;;;;;5009324;28;20041;-65
2022/11/16 02:54:11;;;;;;;51.47;22.95;;;;;;;;;;5010822;28;20044;-63
2022/11/16 02:56:55;;;;;;;51.80;22.92;;;;;;;;;;5011094;28;20045;-64
2022/11/16 02:59:21;;;;;;;53.38;22.85;;;;;;;;;;4999202;28;20033;-66
2022/11/16 03:01:52;;;;;;;54.67;23.80;;;;;;;;;;5013901;28;20137;-65
2022/11/16 03:04:17;;;;;;;53.05;23.27;;;;;;;;;;5010480;28;20022;-65
2022/11/16 03:06:45;;;;;;;47.37;21.87;;;;;;;;;;5005680;28;20472;-65
2022/11/16 03:09:13;;;;;;;49.08;22.00;;;;;;;;;;5008164;28;20044;-65
2022/11/16 03:12:00;;;;;;;50.17;22.02;;;;;;;;;;5006998;28;20084;-65
2022/11/16 03:14:31;;;;;;;52.33;22.50;;;;;;;;;;5008624;28;20026;-66
2022/11/16 03:16:57;;;;;;;47.58;21.45;;;;;;;;;;5005240;28;20029;-65
2022/11/16 03:19:25;;;;;;;48.28;21.83;;;;;;;;;;5006017;28;20037;-64
2022/11/16 03:21:54;;;;;;;55.83;23.23;;;;;;;;;;5007758;28;20036;-65
2022/11/16 03:24:19;;;;;;;50.30;21.85;;;;;;;;;;5009608;28;20018;-65
2022/11/16 03:26:53;;;;;;;122.72;35.30;;;;;;;;;;5005262;28;20037;-66
2022/11/16 03:29:19;;;;;;;56.95;23.90;;;;;;;;;;5006440;28;20509;-65
2022/11/16 03:31:46;;;;;;;50.90;22.10;;;;;;;;;;5008294;28;20101;-65
2022/11/16 03:34:15;;;;;;;50.42;22.75;;;;;;;;;;5006149;28;20075;-66
2022/11/16 03:36:41;;;;;;;52.60;22.97;;;;;;;;;;4991526;28;20383;-68
2022/11/16 03:39:13;;;;;;;54.67;24.33;;;;;;;;;;5004739;28;20283;-65
2022/11/16 03:41:40;;;;;;;53.78;22.58;;;;;;;;;;5009200;28;20033;-66
2022/11/16 03:44:07;;;;;;;51.00;21.50;;;;;;;;;;5003074;28;20030;-65
2022/11/16 03:46:33;;;;;;;45.10;21.83;;;;;;;;;;5006182;28;20036;-66
2022/11/16 03:48:59;;;;;;;47.90;23.02;;;;;;;;;;5005031;28;20112;-66
2022/11/16 03:51:24;;;;;;;53.65;23.02;;;;;;;;;;5009994;28;20476;-67
2022/11/16 03:53:50;;;;;;;55.20;24.25;;;;;;;;;;5010289;28;20113;-66
2022/11/16 03:56:15;;;;;;;48.85;23.33;;;;;;;;;;5004374;28;20045;-66
2022/11/16 03:58:40;;;;;;;49.43;22.83;;;;;;;;;;5010648;28;20037;-66
2022/11/16 04:01:06;;;;;;;47.67;21.90;;;;;;;;;;5009358;28;20061;-65
2022/11/16 04:03:31;;;;;;;52.55;23.17;;;;;;;;;;5006142;28;20042;-66
2022/11/16 04:25:48;;;;;;;52.10;23.48;;;;;;;7.67;nan;99828.97;4951012;28;20556;-66
2022/11/16 04:28:17;;;;;;;52.92;23.00;;;;;;;;;;4947129;28;20114;-66
2022/11/16 04:38:55;;;;;;;46.85;22.33;;;;;;;;;;4952169;28;20046;-65
2022/11/16 04:44:04;;;;;;;52.78;22.70;;;;;;;;;;4959047;28;20375;-66
2022/11/16 04:49:13;;;;;;;52.08;25.08;;;;;;;;;;4961137;28;20859;-66
2022/11/16 04:51:38;;;;;;;53.60;22.33;;;;;;;;;;5011957;28;20025;-66
2022/11/16 04:54:03;;;;;;;46.87;21.23;;;;;;;;;;5008641;28;20037;-65
2022/11/16 04:56:29;;;;;;;48.13;22.13;;;;;;;;;;5003467;28;20539;-64
2022/11/16 04:58:54;;;;;;;44.50;21.13;;;;;;;;;;4987570;28;20344;-65
2022/11/16 05:02:06;;;;;;;41.83;20.40;;;;;;;;;;5010514;28;20053;-66
2022/11/16 05:04:05;;;;;;;49.55;21.10;;;;;;;;;;5010961;28;20103;-66
2022/11/16 05:06:31;;;;;;;41.53;20.07;;;;;;;;;;5006972;28;20034;-66
2022/11/16 05:08:56;;;;;;;49.13;21.93;;;;;;;;;;5007399;28;20038;-67
2022/11/16 05:11:21;;;;;;;49.53;22.47;;;;;;;;;;5011654;28;20025;-66
2022/11/16 05:13:46;;;;;;;47.80;21.50;;;;;;;;;;5004752;28;20126;-67
2022/11/16 05:16:12;;;;;;;47.60;22.90;;;;;;;;;;4992010;28;20282;-67
2022/11/16 05:18:37;;;;;;;43.00;21.73;;;;;;;;;;5011225;28;20030;-66
2022/11/16 05:21:03;;;;;;;44.40;21.27;;;;;;;;;;4991889;28;20120;-67
2022/11/16 05:26:12;;;;;;;47.55;21.98;;;;;;;;;;5010839;28;20068;-68
2022/11/16 05:28:37;;;;;;;44.17;21.37;;;;;;;;;;4993975;28;20028;-65
2022/11/16 05:31:02;;;;;;;44.17;20.77;;;;;;;;;;5006600;28;20029;-67
2022/11/16 05:33:27;;;;;;;45.80;21.53;;;;;;;;;;5015960;28;20033;-68
2022/11/16 05:35:52;;;;;;;46.57;21.53;;;;;;;;;;5013419;28;20064;-67
2022/11/16 05:38:18;;;;;;;41.27;21.17;;;;;;;;;;5008472;28;20022;-66
2022/11/16 05:40:43;;;;;;;46.88;21.65;;;;;;;;;;4995109;28;20283;-66
2022/11/16 05:43:09;;;;;;;48.17;22.27;;;;;;;;;;5022586;28;20029;-64
2022/11/16 05:45:34;;;;;;;46.67;22.17;;;;;;;;;;5018878;28;20030;-64
2022/11/16 05:47:59;;;;;;;47.47;21.40;;;;;;;;;;5020951;28;20027;-66
2022/11/16 05:50:24;;;;;;;43.20;21.07;;;;;;;;;;5017401;28;20307;-66
2022/11/16 05:52:49;;;;;;;43.73;20.93;;;;;;;;;;5024491;28;20476;-66
2022/11/16 05:55:15;;;;;;;40.40;20.53;;;;;;;;;;5017348;28;20041;-65
2022/11/16 05:57:40;;;;;;;43.90;20.98;;;;;;;;;;4991615;28;20812;-66
2022/11/16 06:00:06;;;;;;;41.40;20.58;;;;;;;;;;5008955;28;20034;-65
2022/11/16 06:02:31;;;;;;;49.60;22.95;;;;;;;;;;5008108;28;20045;-65
2022/11/16 06:04:57;;;;;;;42.58;21.83;;;;;;;;;;5008366;28;20033;-64
2022/11/16 06:07:22;;;;;;;41.57;19.77;;;;;;;;;;5010029;28;20025;-67
2022/11/16 06:09:47;;;;;;;40.27;20.47;;;;;;;;;;5010786;28;20064;-66
2022/11/16 06:12:12;;;;;;;40.23;19.87;;;;;;;;;;4992766;28;20444;-67
2022/11/16 06:14:37;;;;;;;42.80;21.53;;;;;;;;;;5011017;28;20462;-65
2022/11/16 06:17:03;;;;;;;45.57;21.80;;;;;;;;;;5008007;28;20033;-66
2022/11/16 06:19:29;;;;;;;41.55;21.30;;;;;;;;;;5005905;28;20068;-64
2022/11/16 06:21:55;;;;;;;46.28;22.55;;;;;;;;;;5005983;28;20482;-65
2022/11/16 06:24:20;;;;;;;41.33;21.67;;;;;;;;;;5008554;28;20022;-64
2022/11/16 06:26:46;;;;;;;42.97;21.57;;;;;;;;;;5003131;28;20026;-71
2022/11/16 06:29:11;;;;;;;47.60;21.98;;;;;;;;;;4968630;28;20029;-71
2022/11/16 06:31:37;;;;;;;44.90;21.92;;;;;;;;;;5006191;28;20036;-70
2022/11/16 06:34:02;;;;;;;50.40;23.63;;;;;;;;;;5008553;28;20065;-67
2022/11/16 06:36:27;;;;;;;50.03;23.50;;;;;;;;;;5008048;28;20033;-67
2022/11/16 06:38:53;;;;;;;43.20;22.17;;;;;;;;;;4979655;28;20391;-66
2022/11/16 06:41:19;;;;;;;50.88;23.27;;;;;;;;;;5011440;28;20435;-67
2022/11/16 06:43:44;;;;;;;50.25;24.88;;;;;;;;;;4997531;28;20029;-68
2022/11/16 06:46:09;;;;;;;50.23;24.07;;;;;;;;;;5004012;28;20132;-67
2022/11/16 06:48:35;;;;;;;52.20;23.87;;;;;;;;;;5007423;28;20117;-71
2022/11/16 06:51:03;;;;;;;55.95;24.85;;;;;;;;;;5010039;28;20494;-73
2022/11/16 06:53:31;;;;;;;55.53;25.27;;;;;;;;;;5006136;28;20537;-73
2022/11/16 06:56:02;;;;;;;56.95;24.95;;;;;;;8.17;nan;99749.25;5000523;28;20030;-74
2022/11/16 06:58:28;;;;;;;48.75;23.50;;;;;;;;;;5005135;28;20033;-70
2022/11/16 07:00:53;;;;;;;47.97;23.17;;;;;;;;;;5007033;28;20032;-71
2022/11/16 07:03:18;;;;;;;47.97;22.83;;;;;;;;;;5007933;28;20107;-72
2022/11/16 07:05:43;;;;;;;43.70;21.53;;;;;;;;;;5005060;28;20034;-71
2022/11/16 07:08:09;;;;;;;49.67;21.70;;;;;;;;;;5005836;28;20040;-72
2022/11/16 07:10:34;;;;;;;44.23;21.27;;;;;;;;;;5004128;28;20037;-71
2022/11/16 07:13:01;;;;;;;51.83;21.88;;;;;;;;;;5002625;28;20290;-71
2022/11/16 07:15:26;;;;;;;43.53;20.83;;;;;;;;;;4983674;28;20052;-72
2022/11/16 07:17:51;;;;;;;42.47;20.83;;;;;;;;;;4989447;28;20030;-73
2022/11/16 07:20:17;;;;;;;46.07;20.97;;;;;;;;;;5006773;28;20337;-64
2022/11/16 07:22:43;;;;;;;43.33;21.73;;;;;;;;;;4993045;28;20036;-65
2022/11/16 07:25:08;;;;;;;46.47;22.27;;;;;;;;;;5004545;28;20041;-64
2022/11/16 07:27:33;;;;;;;42.80;21.25;;;;;;;;;;4996302;28;20769;-65
2022/11/16 07:30:00;;;;;;;46.17;21.90;;;;;;;;;;5000545;28;20041;-65
2022/11/16 07:32:27;;;;;;;45.40;21.83;;;;;;;;;;5011686;28;20475;-66
2022/11/16 07:34:52;;;;;;;45.92;21.75;;;;;;;;;;5010202;28;20033;-65
2022/11/16 07:37:17;;;;;;;49.97;21.43;;;;;;;;;;5001643;28;20084;-66
2022/11/16 07:39:42;;;;;;;42.53;20.47;;;;;;;;;;5006341;28;20290;-66
2022/11/16 07:42:10;;;;;;;43.50;20.73;;;;;;;;;;5000958;28;20034;-68
2022/11/16 07:44:35;;;;;;;40.95;20.85;;;;;;;;;;5009066;28;20280;-68
2022/11/16 07:47:01;;;;;;;42.28;20.40;;;;;;;;;;5007290;28;20026;-65
2022/11/16 07:49:27;;;;;;;43.33;21.20;;;;;;;;;;4976618;28;20121;-66
2022/11/16 07:51:52;;;;;;;46.30;21.47;;;;;;;;;;4991664;28;20057;-65
2022/11/16 07:54:17;;;;;;;42.83;20.98;;;;;;;;;;5008071;28;20806;-66
2022/11/16 07:56:42;;;;;;;43.70;20.97;;;;;;;;;;5006971;28;20029;-65
2022/11/16 07:59:08;;;;;;;41.43;20.20;;;;;;;;;;5011126;28;20087;-64
2022/11/16 08:01:33;;;;;;;45.95;21.42;;;;;;;;;;5005308;28;20519;-65
2022/11/16 08:04:00;;;;;;;44.42;21.75;;;;;;;;;;5004737;28;20049;-64
2022/11/16 08:06:26;;;;;;;44.88;21.17;;;;;;;;;;5008737;28;20022;-65
2022/11/16 08:08:52;;;;;;;47.88;21.05;;;;;;;;;;5005309;28;20089;-68
2022/11/16 08:11:17;;;;;;;41.90;21.30;;;;;;;;;;4991761;28;20120;-67
2022/11/16 08:13:43;;;;;;;44.67;20.85;;;;;;;;;;5006173;28;20468;-66
2022/11/16 08:16:11;;;;;;;45.05;20.90;;;;;;;;;;5005630;28;20193;-66
2022/11/16 08:18:37;;;;;;;44.33;20.50;;;;;;;;;;4998593;28;20056;-67
2022/11/16 08:21:03;;;;;;;48.90;19.92;;;;;;;;;;5007571;28;20472;-66
2022/11/16 08:23:29;;;;;;;46.53;21.30;;;;;;;;;;5003406;28;20395;-65
2022/11/16 08:25:58;;;;;;;44.85;21.33;;;;;;;;;;5010623;28;20101;-66
2022/11/16 08:28:23;;;;;;;43.03;20.23;;;;;;;;;;5002605;28;20030;-67
2022/11/16 08:30:50;;;;;;;41.78;19.10;;;;;;;;;;5004880;28;20368;-68
2022/11/16 08:33:16;;;;;;;37.78;19.42;;;;;;;;;;4991705;28;20041;-66
2022/11/16 08:35:41;;;;;;;38.28;19.20;;;;;;;;;;4978793;28;20026;-67
2022/11/16 08:38:07;;;;;;;42.87;19.73;;;;;;;;;;5003040;28;20029;-67
2022/11/16 08:40:32;;;;;;;41.17;20.17;;;;;;;;;;5005021;28;20022;-68
2022/11/16 08:42:57;;;;;;;37.00;19.07;;;;;;;;;;5008472;28;20032;-66
2022/11/16 08:45:23;;;;;;;42.17;19.13;;;;;;;;;;5007783;28;20995;-66
2022/11/16 08:47:48;;;;;;;37.10;18.05;;;;;;;;;;5006790;28;20026;-65
2022/11/16 08:50:14;;;;;;;36.83;19.47;;;;;;;;;;4988537;28;20036;-65
2022/11/16 08:52:39;;;;;;;39.10;19.25;;;;;;;;;;5010488;28;20321;-65
2022/11/16 08:55:05;;;;;;;41.07;20.50;;;;;;;;;;4992066;28;20032;-65
2022/11/16 08:57:30;;;;;;;36.42;18.40;;;;;;;;;;5008062;28;20345;-66
2022/11/16 08:59:56;;;;;;;40.65;21.17;;;;;;;;;;4994943;28;20148;-65
2022/11/16 09:02:24;;;;;;;39.10;18.47;;;;;;;;;;5011587;28;20077;-66
2022/11/16 09:04:49;;;;;;;37.80;18.42;;;;;;;;;;5011123;28;20430;-66
2022/11/16 09:07:14;;;;;;;40.53;19.67;;;;;;;;;;5008586;28;20034;-65
2022/11/16 09:09:40;;;;;;;38.33;19.27;;;;;;;;;;4993631;28;20021;-66
2022/11/16 09:12:05;;;;;;;37.27;18.43;;;;;;;;;;5009369;28;20090;-65
2022/11/16 09:14:30;;;;;;;40.03;18.83;;;;;;;;;;5010836;28;20025;-66
2022/11/16 09:16:56;;;;;;;41.15;20.35;;;;;;;;;;5025809;28;20281;-68
2022/11/16 09:19:21;;;;;;;38.20;18.88;;;;;;;;;;5036627;28;20085;-69
2022/11/16 09:21:46;;;;;;;35.08;18.35;;;;;;;;;;5040168;28;20018;-71
2022/11/16 09:24:12;;;;;;;41.00;19.23;;;;;;;;;;5037827;28;20022;-69
2022/11/16 09:26:37;;;;;;;34.72;18.88;;;;;;;;;;5030304;28;20299;-69
2022/11/16 09:29:03;;;;;;;36.73;18.57;;;;;;;;;;5037282;28;20040;-68
2022/11/16 09:31:31;;;;;;;34.28;18.75;;;;;;;;;;5021140;28;20295;-68
2022/11/16 09:33:57;;;;;;;38.05;19.27;;;;;;;;;;5016373;28;20381;-68
2022/11/16 09:36:23;;;;;;;38.55;19.80;;;;;;;;;;5009179;28;20027;-69
2022/11/16 09:38:48;;;;;;;33.78;18.42;;;;;;;;;;4992564;28;20045;-70
2022/11/16 09:41:13;;;;;;;42.88;19.23;;;;;;;;;;5010955;28;20464;-69
2022/11/16 09:43:54;;;;;;;37.80;18.73;;;;;;;;;;5014857;28;20033;-70
2022/11/16 09:46:21;;;;;;;38.88;18.52;;;;;;;;;;5015208;28;20025;-69
2022/11/16 09:48:48;;;;;;;31.65;17.05;;;;;;;;;;4994064;28;20499;-69
2022/11/16 09:51:14;;;;;;;33.97;18.50;;;;;;;;;;5006863;28;20448;-69
2022/11/16 09:53:39;;;;;;;35.03;17.70;;;;;;;;;;5013870;28;20492;-69
2022/11/16 09:56:11;;;;;;;32.20;17.10;;;;;;;;;;5007932;28;20083;-69
2022/11/16 09:58:41;;;;;;;33.35;17.77;;;;;;;;;;5007234;28;20358;-69
2022/11/16 10:01:14;;;;;;;37.17;18.08;;;;;;;;;;5015291;28;20057;-68
2022/11/16 10:03:41;;;;;;;35.17;17.38;;;;;;;;;;5010508;28;20020;-68
2022/11/16 10:06:10;;;;;;;30.70;16.52;;;;;;;;;;5009172;28;20044;-69
2022/11/16 10:08:38;;;;;;;35.28;16.33;;;;;;;;;;5009750;28;20583;-69
2022/11/16 10:11:16;;;;;;;29.92;16.38;;;;;;;;;;5009407;28;20038;-69
2022/11/16 10:13:53;;;;;;;29.67;15.13;;;;;;;;;;4999929;28;20030;-68
2022/11/16 10:16:35;;;;;;;32.90;16.50;;;;;;;;;;5009663;28;20089;-68
2022/11/16 10:19:13;;;;;;;42.40;16.55;;;;;;;;;;5008750;28;20021;-69
2022/11/16 10:21:50;;;;;;;28.67;15.90;;;;;;;;;;5010432;28;20495;-69
2022/11/16 10:24:23;;;;;;;25.67;14.93;;;;;;;;;;4998099;28;20070;-69
2022/11/16 10:27:07;;;;;;;27.52;15.35;;;;;;;;;;5007372;28;20514;-68
2022/11/16 10:29:35;;;;;;;27.23;14.75;;;;;;;;;;5005775;28;20037;-67
2022/11/16 10:32:12;;;;;;;26.08;14.95;;;;;;;;;;5009158;28;20037;-68
2022/11/16 10:34:42;;;;;;;27.88;14.70;;;;;;;;;;5007571;28;20680;-68
2022/11/16 10:37:10;;;;;;;24.67;14.73;;;;;;;;;;5010894;28;20033;-67
2022/11/16 10:39:39;;;;;;;30.38;14.73;;;;;;;;;;5006020;28;20042;-67
2022/11/16 10:42:09;;;;;;;25.88;14.65;;;;;;;;;;5010551;28;20117;-68
2022/11/16 10:44:38;;;;;;;28.42;15.00;;;;;;;;;;5010953;28;20019;-68
2022/11/16 10:47:24;;;;;;;25.60;14.70;;;;;;;;;;4994505;28;20034;-67
2022/11/16 10:49:52;;;;;;;27.67;13.98;;;;;;;;;;5013480;28;20575;-67
2022/11/16 10:52:17;;;;;;;26.75;14.60;;;;;;;;;;5005179;28;20112;-67
2022/11/16 10:54:42;;;;;;;34.10;14.70;;;;;;;;;;5006239;28;20165;-66
2022/11/16 10:57:12;;;;;;;25.30;13.85;;;;;;;;;;5005936;28;20019;-67
2022/11/16 10:59:42;;;;;;;26.33;13.43;;;;;;;;;;5009050;28;20030;-68
2022/11/16 11:02:25;;;;;;;23.25;13.23;;;;;;;;;;5005383;28;20736;-67
2022/11/16 11:05:14;;;;;;;21.60;12.73;;;;;;;;;;5003054;28;20026;-68
2022/11/16 11:07:42;;;;;;;23.38;13.45;;;;;;;;;;5003090;28;20121;-66
2022/11/16 11:10:26;;;;;;;25.88;12.70;;;;;;;;;;5008740;28;20403;-67
2022/11/16 11:13:04;;;;;;;22.20;12.57;;;;;;;;;;5005064;28;20182;-67
2022/11/16 11:15:29;;;;;;;23.48;12.77;;;;;;;;;;5008419;28;20026;-68
2022/11/16 11:18:10;;;;;;;21.95;11.93;;;;;;;;;;4999189;28;20032;-68
2022/11/16 11:20:35;;;;;;;25.17;11.90;;;;;;;;;;5001768;28;20025;-68
2022/11/16 11:23:11;;;;;;;23.25;12.02;;;;;;;;;;5003597;28;20029;-68
2022/11/16 11:25:40;;;;;;;19.30;11.40;;;;;;;;;;4995452;28;20021;-68
2022/11/16 11:28:13;;;;;;;21.10;11.63;;;;;;;;;;5009152;28;20471;-68
2022/11/16 11:30:38;;;;;;;20.83;11.65;;;;;;;;;;5006048;28;20069;-68
2022/11/16 11:33:08;;;;;;;21.27;11.77;;;;;;;;;;5009307;28;20057;-68
2022/11/16 11:35:34;;;;;;;23.65;13.20;;;;;;;;;;5009321;28;20028;-68
2022/11/16 11:38:00;;;;;;;26.27;11.63;;;;;;;;;;5006665;28;20033;-68
2022/11/16 11:40:27;;;;;;;19.13;11.35;;;;;;;;;;5007516;28;20286;-67
2022/11/16 11:42:52;;;;;;;18.58;11.35;;;;;;;;;;5005587;28;20037;-69
2022/11/16 11:45:18;;;;;;;22.10;12.23;;;;;;;;;;5011606;28;20022;-68
2022/11/16 11:47:56;;;;;;;19.02;11.82;;;;;;;;;;5009147;28;20066;-68
2022/11/16 11:50:27;;;;;;;22.85;11.73;;;;;;;;;;5009580;28;20498;-69
2022/11/16 11:53:06;;;;;;;23.70;11.48;;;;;;;;;;5007734;28;20060;-68
2022/11/16 11:55:32;;;;;;;21.48;11.77;;;;;;;;;;5005428;28;20182;-69
2022/11/16 11:57:58;;;;;;;22.00;12.25;;;;;;;;;;5013622;28;20466;-68
2022/11/16 12:00:24;;;;;;;18.52;10.73;;;;;;;;;;5010646;28;20030;-68
2022/11/16 12:02:56;;;;;;;20.95;10.95;;;;;;;;;;5007921;28;20082;-68
2022/11/16 12:05:37;;;;;;;19.80;11.65;;;;;;;;;;5009781;28;20026;-67
2022/11/16 12:08:21;;;;;;;19.48;10.40;;;;;;;;;;5010244;28;20026;-67
2022/11/16 12:10:50;;;;;;;20.33;11.43;;;;;;;;;;5007571;28;20036;-68
2022/11/16 12:13:15;;;;;;;17.43;10.93;;;;;;;;;;5006058;28;20036;-67
2022/11/16 12:16:03;;;;;;;22.07;11.00;;;;;;;;;;4987413;28;20415;-67
2022/11/16 12:18:41;;;;;;;17.00;11.53;;;;;;;;;;4946089;28;20381;-67
2022/11/16 12:21:08;;;;;;;18.38;10.27;;;;;;;;;;4942928;28;20434;-67
2022/11/16 12:23:34;;;;;;;21.33;11.63;;;;;;;;;;4934973;28;20094;-66
2022/11/16 12:26:19;;;;;;;19.77;10.17;;;;;;;;;;4948368;28;20477;-73
2022/11/16 12:29:03;;;;;;;19.42;10.82;;;;;;;;;;4937135;29;20038;-67
2022/11/16 12:31:40;;;;;;;17.35;10.40;;;;;;;;;;4952982;28;20032;-66
2022/11/16 12:34:18;;;;;;;18.73;11.02;;;;;;;;;;4973344;28;20022;-67
2022/11/16 12:37:03;;;;;;;16.40;10.50;;;;;;;;;;4969457;28;20046;-66
2022/11/16 12:39:37;;;;;;;23.20;10.70;;;;;;;;;;4965903;28;20011;-66
2022/11/16 12:42:11;;;;;;;20.92;10.90;;;;;;;;;;4973294;28;20092;-67
2022/11/16 12:44:39;;;;;;;22.42;11.07;;;;;;;;;;4977445;28;20039;-66
2022/11/16 12:47:04;;;;;;;18.02;10.35;;;;;;;;;;4968856;28;20035;-67
2022/11/16 12:49:29;;;;;;;17.67;10.43;;;;;;;;;;4951135;28;20057;-67
2022/11/16 12:52:21;;;;;;;16.93;9.77;;;;;;;;;;4935173;29;20771;-67
2022/11/16 12:54:59;;;;;;;14.88;9.23;;;;;;;;;;4949548;28;20065;-67
2022/11/16 12:57:43;;;;;;;17.55;9.88;;;;;;;;;;5009029;28;20033;-67
2022/11/16 13:00:09;;;;;;;26.25;10.30;;;;;;;;;;5011310;28;20027;-67
2022/11/16 13:02:35;;;;;;;19.70;11.10;;;;;;;;;;5014542;28;20495;-67
2022/11/16 13:05:11;;;;;;;19.77;10.70;;;;;;;;;;5007174;28;20040;-67
2022/11/16 13:07:56;;;;;;;18.35;10.60;;;;;;;;;;5012160;28;20419;-67
2022/11/16 13:10:26;;;;;;;18.83;10.63;;;;;;;;;;5007634;28;20034;-67
2022/11/16 13:12:55;;;;;;;17.55;10.25;;;;;;;;;;5014652;28;20064;-66
2022/11/16 13:15:21;;;;;;;18.55;10.02;;;;;;;;;;5008839;28;20074;-69
2022/11/16 13:17:52;;;;;;;17.60;10.07;;;;;;;;;;5012060;28;20125;-67
2022/11/16 13:20:28;;;;;;;18.38;11.10;;;;;;;;;;5011540;28;20034;-67
2022/11/16 13:22:59;;;;;;;22.58;10.20;;;;;;;;;;5012431;28;20109;-68
2022/11/16 13:25:43;;;;;;;20.40;10.85;;;;;;;;;;5014891;28;20026;-68
2022/11/16 13:28:15;;;;;;;21.88;10.65;;;;;;;;;;5007228;28;20036;-68
2022/11/16 13:30:44;;;;;;;26.00;10.63;;;;;;;;;;5010757;28;20026;-67
2022/11/16 13:33:21;;;;;;;22.00;11.52;;;;;;;;;;4993074;28;20022;-68
2022/11/16 13:35:46;;;;;;;19.83;11.02;;;;;;;;;;5008453;28;20025;-67
2022/11/16 13:38:12;;;;;;;18.53;10.70;;;;;;;;;;5011284;28;20404;-67
2022/11/16 13:40:38;;;;;;;16.48;10.20;;;;;;;;;;4978647;28;20447;-67
2022/11/16 13:43:07;;;;;;;19.77;10.15;;;;;;;;;;5011576;28;20100;-67
2022/11/16 13:45:43;;;;;;;18.45;10.00;;;;;;;;;;5004497;28;20489;-66
2022/11/16 13:48:23;;;;;;;17.17;10.65;;;;;;;;;;5009524;28;20048;-67
2022/11/16 13:50:55;;;;;;;17.08;9.65;;;;;;;;;;5011379;28;20037;-67
2022/11/16 13:53:23;;;;;;;20.10;10.63;;;;;;;;;;5007876;28;20589;-66
2022/11/16 13:55:53;;;;;;;18.38;9.88;;;;;;;;;;5007779;28;20121;-68
2022/11/16 13:58:19;;;;;;;22.52;10.90;;;;;;;;;;5010181;28;20097;-67
2022/11/16 14:00:54;;;;;;;18.55;10.00;;;;;;;;;;5009601;28;20172;-66
2022/11/16 14:03:19;;;;;;;18.88;10.30;;;;;;;;;;5009049;28;20030;-67
2022/11/16 14:05:48;;;;;;;22.40;11.17;;;;;;;;;;5009771;28;20021;-67
2022/11/16 14:08:22;;;;;;;20.40;10.32;;;;;;;;;;5008063;28;20496;-67
2022/11/16 14:10:48;;;;;;;21.05;9.82;;;;;;;;;;5011179;28;20037;-67
2022/11/16 14:13:33;;;;;;;18.73;10.43;;;;;;;;;;5002977;28;20032;-67
2022/11/16 14:16:11;;;;;;;20.70;10.00;;;;;;;;;;5005354;28;20529;-67
2022/11/16 14:18:36;;;;;;;22.85;10.43;;;;;;;;;;5009215;28;20053;-66
2022/11/16 14:21:25;;;;;;;25.65;10.43;;;;;;;;;;5008791;28;20030;-69
2022/11/16 14:23:50;;;;;;;23.35;10.65;;;;;;;;;;4947339;28;20042;-69
2022/11/16 14:26:22;;;;;;;25.50;11.23;;;;;;;;;;4947105;28;20091;-68
2022/11/16 14:28:53;;;;;;;17.55;9.85;;;;;;;;;;4942043;28;20135;-68
2022/11/16 14:31:18;;;;;;;22.10;11.32;;;;;;;;;;4948094;28;20075;-69
2022/11/16 14:33:47;;;;;;;22.40;11.03;;;;;;;;;;4953251;28;20502;-69
2022/11/16 14:36:13;;;;;;;21.38;10.38;;;;;;;;;;4940378;28;20122;-68
2022/11/16 14:38:40;;;;;;;17.63;10.30;;;;;;;;;;4944934;28;20595;-68
2022/11/16 14:41:11;;;;;;;21.15;11.15;;;;;;;;;;4934721;29;20035;-68
2022/11/16 14:43:44;;;;;;;27.98;13.68;;;;;;;;;;4954796;28;20031;-68
2022/11/16 14:46:24;;;;;;;32.03;17.05;;;;;;;;;;4942167;28;20127;-69
2022/11/16 14:48:53;;;;;;;33.25;16.90;;;;;;;;;;4948480;28;20480;-68
2022/11/16 14:51:20;;;;;;;37.97;16.50;;;;;;;;;;4936761;28;20043;-68
2022/11/16 14:53:48;;;;;;;30.30;16.88;;;;;;;;;;4948388;28;20059;-68
2022/11/16 14:56:14;;;;;;;32.05;16.33;;;;;;;;;;4947703;28;20037;-69
2022/11/16 14:58:49;;;;;;;34.78;17.95;;;;;;;;;;4945083;28;20041;-68
2022/11/16 15:01:16;;;;;;;39.80;17.90;;;;;;;;;;4987443;28;20514;-68
2022/11/16 15:04:14;;;;;;;33.33;18.13;;;;;;;;;;5012519;28;20026;-68
2022/11/16 15:06:42;;;;;;;34.03;17.58;;;;;;;;;;4970182;28;20085;-69